sensor_id;sensor_type;location;lat;lon;timestamp;P1;durP1;ratioP1;P2;durP2;ratioP2
15071;SDS011;7635;56.696;13.002;2023-03-23T00:00:13;2.83;;;2.37;;
15071;SDS011;7635;56.696;13.002;2023-03-23T00:02:56;3.57;;;2.00;;
15071;SDS011;7635;56.696;13.002;2023-03-23T00:05:46;3.00;;;2.30;;
15071;SDS011;7635;56.696;13.002;2023-03-23T00:08:15;4.67;;;2.83;;
15071;SDS011;7635;56.696;13.002;2023-03-23T00:10:56;4.73;;;2.67;;
15071;SDS011;7635;56.696;13.002;2023-03-23T00:13:32;6.27;;;2.80;;
15071;SDS011;7635;56.696;13.002;2023-03-23T00:16:08;4.13;;;2.70;;
15071;SDS011;7635;56.696;13.002;2023-03-23T00:19:03;6.23;;;2.77;;
15071;SDS011;7635;56.696;13.002;2023-03-23T00:21:52;3.37;;;2.63;;
15071;SDS011;7635;56.696;13.002;2023-03-23T00:24:25;3.27;;;2.17;;
15071;SDS011;7635;56.696;13.002;2023-03-23T00:27:07;4.40;;;2.73;;
15071;SDS011;7635;56.696;13.002;2023-03-23T00:29:39;6.27;;;3.20;;
15071;SDS011;7635;56.696;13.002;2023-03-23T00:32:07;3.27;;;2.43;;
15071;SDS011;7635;56.696;13.002;2023-03-23T00:37:35;3.93;;;2.50;;
15071;SDS011;7635;56.696;13.002;2023-03-23T00:40:10;3.90;;;2.73;;
15071;SDS011;7635;56.696;13.002;2023-03-23T00:42:37;4.13;;;2.20;;
15071;SDS011;7635;56.696;13.002;2023-03-23T00:45:13;4.87;;;2.70;;
15071;SDS011;7635;56.696;13.002;2023-03-23T00:47:48;3.23;;;2.13;;
15071;SDS011;7635;56.696;13.002;2023-03-23T00:50:17;3.30;;;2.30;;
15071;SDS011;7635;56.696;13.002;2023-03-23T00:52:46;3.57;;;2.03;;
15071;SDS011;7635;56.696;13.002;2023-03-23T00:55:26;3.30;;;2.40;;
15071;SDS011;7635;56.696;13.002;2023-03-23T00:58:11;2.50;;;2.27;;
15071;SDS011;7635;56.696;13.002;2023-03-23T01:06:42;3.00;;;2.40;;
15071;SDS011;7635;56.696;13.002;2023-03-23T01:09:16;2.73;;;2.30;;
15071;SDS011;7635;56.696;13.002;2023-03-23T01:11:44;2.70;;;2.17;;
15071;SDS011;7635;56.696;13.002;2023-03-23T01:14:20;2.37;;;2.17;;
15071;SDS011;7635;56.696;13.002;2023-03-23T01:16:48;3.17;;;2.33;;
15071;SDS011;7635;56.696;13.002;2023-03-23T01:19:27;4.33;;;2.30;;
15071;SDS011;7635;56.696;13.002;2023-03-23T01:21:56;4.17;;;2.40;;
15071;SDS011;7635;56.696;13.002;2023-03-23T01:27:09;2.43;;;1.80;;
15071;SDS011;7635;56.696;13.002;2023-03-23T01:30:05;2.07;;;1.87;;
15071;SDS011;7635;56.696;13.002;2023-03-23T01:32:33;4.03;;;2.23;;
15071;SDS011;7635;56.696;13.002;2023-03-23T01:35:31;3.33;;;2.50;;
15071;SDS011;7635;56.696;13.002;2023-03-23T01:38:09;3.47;;;2.77;;
15071;SDS011;7635;56.696;13.002;2023-03-23T01:40:45;4.60;;;3.00;;
15071;SDS011;7635;56.696;13.002;2023-03-23T01:43:13;4.70;;;2.93;;
15071;SDS011;7635;56.696;13.002;2023-03-23T01:45:41;2.27;;;2.07;;
15071;SDS011;7635;56.696;13.002;2023-03-23T01:48:09;2.90;;;2.60;;
15071;SDS011;7635;56.696;13.002;2023-03-23T01:53:36;3.77;;;2.50;;
15071;SDS011;7635;56.696;13.002;2023-03-23T01:56:06;3.30;;;2.30;;
15071;SDS011;7635;56.696;13.002;2023-03-23T01:58:36;6.23;;;2.50;;
15071;SDS011;7635;56.696;13.002;2023-03-23T02:01:06;3.30;;;2.30;;
15071;SDS011;7635;56.696;13.002;2023-03-23T02:03:36;2.10;;;1.90;;
15071;SDS011;7635;56.696;13.002;2023-03-23T02:06:08;3.63;;;2.90;;
15071;SDS011;7635;56.696;13.002;2023-03-23T02:08:36;2.73;;;2.23;;
15071;SDS011;7635;56.696;13.002;2023-03-23T02:11:11;3.83;;;2.40;;
15071;SDS011;7635;56.696;13.002;2023-03-23T02:13:49;2.37;;;2.17;;
15071;SDS011;7635;56.696;13.002;2023-03-23T02:16:20;6.27;;;2.37;;
15071;SDS011;7635;56.696;13.002;2023-03-23T02:18:57;4.63;;;2.30;;
15071;SDS011;7635;56.696;13.002;2023-03-23T02:24:30;5.67;;;2.80;;
15071;SDS011;7635;56.696;13.002;2023-03-23T02:27:10;4.37;;;2.83;;
15071;SDS011;7635;56.696;13.002;2023-03-23T02:29:51;2.87;;;2.30;;
15071;SDS011;7635;56.696;13.002;2023-03-23T02:32:52;3.00;;;2.40;;
15071;SDS011;7635;56.696;13.002;2023-03-23T02:41:16;3.57;;;2.43;;
15071;SDS011;7635;56.696;13.002;2023-03-23T02:43:52;3.33;;;2.63;;
15071;SDS011;7635;56.696;13.002;2023-03-23T02:46:35;3.23;;;2.17;;
15071;SDS011;7635;56.696;13.002;2023-03-23T02:49:03;4.00;;;2.30;;
15071;SDS011;7635;56.696;13.002;2023-03-23T02:51:33;2.83;;;2.40;;
15071;SDS011;7635;56.696;13.002;2023-03-23T02:54:01;3.23;;;2.50;;
15071;SDS011;7635;56.696;13.002;2023-03-23T02:56:30;3.67;;;2.60;;
15071;SDS011;7635;56.696;13.002;2023-03-23T03:01:50;3.40;;;2.70;;
15071;SDS011;7635;56.696;13.002;2023-03-23T03:04:27;3.10;;;2.03;;
15071;SDS011;7635;56.696;13.002;2023-03-23T03:07:22;3.47;;;2.63;;
15071;SDS011;7635;56.696;13.002;2023-03-23T03:10:04;3.03;;;2.53;;
15071;SDS011;7635;56.696;13.002;2023-03-23T03:12:40;3.00;;;2.27;;
15071;SDS011;7635;56.696;13.002;2023-03-23T03:18:24;3.50;;;2.70;;
15071;SDS011;7635;56.696;13.002;2023-03-23T03:20:56;2.67;;;2.33;;
15071;SDS011;7635;56.696;13.002;2023-03-23T03:23:28;3.50;;;2.97;;
15071;SDS011;7635;56.696;13.002;2023-03-23T03:25:58;2.60;;;2.10;;
15071;SDS011;7635;56.696;13.002;2023-03-23T03:28:30;4.07;;;2.87;;
15071;SDS011;7635;56.696;13.002;2023-03-23T03:30:58;3.73;;;2.47;;
15071;SDS011;7635;56.696;13.002;2023-03-23T03:33:36;2.87;;;2.40;;
15071;SDS011;7635;56.696;13.002;2023-03-23T03:36:04;3.37;;;2.43;;
15071;SDS011;7635;56.696;13.002;2023-03-23T03:38:41;3.97;;;2.50;;
15071;SDS011;7635;56.696;13.002;2023-03-23T03:41:09;2.47;;;2.13;;
15071;SDS011;7635;56.696;13.002;2023-03-23T03:43:36;4.97;;;2.37;;
15071;SDS011;7635;56.696;13.002;2023-03-23T03:46:03;3.03;;;2.47;;
15071;SDS011;7635;56.696;13.002;2023-03-23T03:48:30;3.00;;;2.50;;
15071;SDS011;7635;56.696;13.002;2023-03-23T03:53:49;3.43;;;2.73;;
15071;SDS011;7635;56.696;13.002;2023-03-23T03:56:16;3.80;;;2.67;;
15071;SDS011;7635;56.696;13.002;2023-03-23T03:58:50;5.03;;;3.07;;
15071;SDS011;7635;56.696;13.002;2023-03-23T04:01:24;3.60;;;2.67;;
15071;SDS011;7635;56.696;13.002;2023-03-23T04:03:57;5.07;;;2.87;;
15071;SDS011;7635;56.696;13.002;2023-03-23T04:06:30;4.33;;;2.40;;
15071;SDS011;7635;56.696;13.002;2023-03-23T04:08:59;3.67;;;2.80;;
15071;SDS011;7635;56.696;13.002;2023-03-23T04:11:31;4.60;;;2.70;;
15071;SDS011;7635;56.696;13.002;2023-03-23T04:13:58;3.00;;;2.33;;
15071;SDS011;7635;56.696;13.002;2023-03-23T04:16:30;2.87;;;2.30;;
15071;SDS011;7635;56.696;13.002;2023-03-23T04:19:17;3.07;;;2.30;;
15071;SDS011;7635;56.696;13.002;2023-03-23T04:21:50;2.83;;;2.20;;
15071;SDS011;7635;56.696;13.002;2023-03-23T04:24:29;3.03;;;2.27;;
15071;SDS011;7635;56.696;13.002;2023-03-23T04:27:00;4.30;;;2.67;;
15071;SDS011;7635;56.696;13.002;2023-03-23T04:29:33;2.80;;;2.50;;
15071;SDS011;7635;56.696;13.002;2023-03-23T04:32:23;3.67;;;2.43;;
15071;SDS011;7635;56.696;13.002;2023-03-23T04:35:13;3.27;;;2.20;;
15071;SDS011;7635;56.696;13.002;2023-03-23T04:37:51;2.87;;;2.20;;
15071;SDS011;7635;56.696;13.002;2023-03-23T04:40:20;3.10;;;2.33;;
15071;SDS011;7635;56.696;13.002;2023-03-23T04:42:47;2.70;;;2.27;;
15071;SDS011;7635;56.696;13.002;2023-03-23T04:45:32;2.73;;;2.20;;
15071;SDS011;7635;56.696;13.002;2023-03-23T04:48:02;3.37;;;2.57;;
15071;SDS011;7635;56.696;13.002;2023-03-23T04:50:31;2.67;;;2.23;;
15071;SDS011;7635;56.696;13.002;2023-03-23T04:53:00;2.90;;;2.20;;
15071;SDS011;7635;56.696;13.002;2023-03-23T04:55:35;2.10;;;1.90;;
15071;SDS011;7635;56.696;13.002;2023-03-23T04:58:03;3.07;;;2.20;;
15071;SDS011;7635;56.696;13.002;2023-03-23T05:00:30;2.63;;;1.80;;
15071;SDS011;7635;56.696;13.002;2023-03-23T05:03:08;3.03;;;1.53;;
15071;SDS011;7635;56.696;13.002;2023-03-23T05:05:35;1.77;;;1.60;;
15071;SDS011;7635;56.696;13.002;2023-03-23T05:08:05;1.80;;;1.50;;
15071;SDS011;7635;56.696;13.002;2023-03-23T05:10:32;2.10;;;1.90;;
15071;SDS011;7635;56.696;13.002;2023-03-23T05:13:16;1.87;;;1.50;;
15071;SDS011;7635;56.696;13.002;2023-03-23T05:15:45;2.00;;;1.73;;
15071;SDS011;7635;56.696;13.002;2023-03-23T05:18:18;2.03;;;1.83;;
15071;SDS011;7635;56.696;13.002;2023-03-23T05:20:48;2.27;;;1.83;;
15071;SDS011;7635;56.696;13.002;2023-03-23T05:23:17;2.43;;;1.83;;
15071;SDS011;7635;56.696;13.002;2023-03-23T05:25:53;4.00;;;2.70;;
15071;SDS011;7635;56.696;13.002;2023-03-23T05:28:20;4.23;;;3.00;;
15071;SDS011;7635;56.696;13.002;2023-03-23T05:31:05;3.00;;;2.37;;
15071;SDS011;7635;56.696;13.002;2023-03-23T05:33:44;3.20;;;2.50;;
15071;SDS011;7635;56.696;13.002;2023-03-23T05:36:11;3.87;;;2.37;;
15071;SDS011;7635;56.696;13.002;2023-03-23T05:38:39;3.37;;;2.23;;
15071;SDS011;7635;56.696;13.002;2023-03-23T05:44:04;1.90;;;1.80;;
15071;SDS011;7635;56.696;13.002;2023-03-23T05:46:40;2.70;;;2.03;;
15071;SDS011;7635;56.696;13.002;2023-03-23T05:49:13;3.20;;;2.07;;
15071;SDS011;7635;56.696;13.002;2023-03-23T05:51:41;3.83;;;2.50;;
15071;SDS011;7635;56.696;13.002;2023-03-23T05:54:13;2.53;;;2.30;;
15071;SDS011;7635;56.696;13.002;2023-03-23T05:56:52;2.60;;;1.93;;
15071;SDS011;7635;56.696;13.002;2023-03-23T05:59:28;2.37;;;1.97;;
15071;SDS011;7635;56.696;13.002;2023-03-23T06:01:55;2.97;;;2.00;;
15071;SDS011;7635;56.696;13.002;2023-03-23T06:04:31;3.10;;;2.20;;
15071;SDS011;7635;56.696;13.002;2023-03-23T06:07:08;2.37;;;2.07;;
15071;SDS011;7635;56.696;13.002;2023-03-23T06:09:50;3.30;;;2.37;;
15071;SDS011;7635;56.696;13.002;2023-03-23T06:12:19;4.20;;;2.80;;
15071;SDS011;7635;56.696;13.002;2023-03-23T06:17:31;3.20;;;2.13;;
15071;SDS011;7635;56.696;13.002;2023-03-23T06:20:04;2.37;;;2.00;;
15071;SDS011;7635;56.696;13.002;2023-03-23T06:22:44;2.17;;;1.97;;
15071;SDS011;7635;56.696;13.002;2023-03-23T06:25:11;1.70;;;1.60;;
15071;SDS011;7635;56.696;13.002;2023-03-23T06:30:25;2.27;;;1.60;;
15071;SDS011;7635;56.696;13.002;2023-03-23T06:32:59;2.13;;;1.83;;
15071;SDS011;7635;56.696;13.002;2023-03-23T06:35:42;2.10;;;1.90;;
15071;SDS011;7635;56.696;13.002;2023-03-23T06:38:09;2.00;;;1.50;;
15071;SDS011;7635;56.696;13.002;2023-03-23T06:43:15;3.63;;;1.70;;
15071;SDS011;7635;56.696;13.002;2023-03-23T06:45:42;2.77;;;2.10;;
15071;SDS011;7635;56.696;13.002;2023-03-23T06:48:09;1.80;;;1.67;;
15071;SDS011;7635;56.696;13.002;2023-03-23T06:50:50;2.07;;;1.70;;
15071;SDS011;7635;56.696;13.002;2023-03-23T06:53:20;1.33;;;1.20;;
15071;SDS011;7635;56.696;13.002;2023-03-23T06:55:53;1.50;;;1.33;;
15071;SDS011;7635;56.696;13.002;2023-03-23T06:58:32;1.57;;;1.37;;
15071;SDS011;7635;56.696;13.002;2023-03-23T07:01:06;1.33;;;1.23;;
15071;SDS011;7635;56.696;13.002;2023-03-23T07:03:43;1.47;;;1.10;;
15071;SDS011;7635;56.696;13.002;2023-03-23T07:06:23;1.13;;;1.13;;
15071;SDS011;7635;56.696;13.002;2023-03-23T07:09:00;1.37;;;1.23;;
15071;SDS011;7635;56.696;13.002;2023-03-23T07:11:28;2.03;;;1.50;;
15071;SDS011;7635;56.696;13.002;2023-03-23T07:14:05;2.00;;;1.17;;
15071;SDS011;7635;56.696;13.002;2023-03-23T07:16:38;2.13;;;1.63;;
15071;SDS011;7635;56.696;13.002;2023-03-23T07:19:19;1.53;;;1.30;;
15071;SDS011;7635;56.696;13.002;2023-03-23T07:24:24;2.00;;;1.67;;
15071;SDS011;7635;56.696;13.002;2023-03-23T07:26:54;2.20;;;1.97;;
15071;SDS011;7635;56.696;13.002;2023-03-23T07:29:22;2.10;;;1.90;;
15071;SDS011;7635;56.696;13.002;2023-03-23T07:32:03;3.20;;;2.43;;
15071;SDS011;7635;56.696;13.002;2023-03-23T07:34:34;2.87;;;2.00;;
15071;SDS011;7635;56.696;13.002;2023-03-23T07:37:11;2.27;;;2.07;;
15071;SDS011;7635;56.696;13.002;2023-03-23T07:39:40;3.03;;;2.60;;
15071;SDS011;7635;56.696;13.002;2023-03-23T07:42:11;2.53;;;2.10;;
15071;SDS011;7635;56.696;13.002;2023-03-23T07:44:42;2.60;;;2.37;;
15071;SDS011;7635;56.696;13.002;2023-03-23T07:47:23;3.93;;;2.50;;
15071;SDS011;7635;56.696;13.002;2023-03-23T07:49:59;3.17;;;2.50;;
15071;SDS011;7635;56.696;13.002;2023-03-23T07:52:32;4.07;;;2.80;;
15071;SDS011;7635;56.696;13.002;2023-03-23T07:54:59;5.60;;;3.00;;
15071;SDS011;7635;56.696;13.002;2023-03-23T07:57:48;5.30;;;3.20;;
15071;SDS011;7635;56.696;13.002;2023-03-23T08:00:17;4.33;;;3.20;;
15071;SDS011;7635;56.696;13.002;2023-03-23T08:02:46;6.10;;;3.90;;
15071;SDS011;7635;56.696;13.002;2023-03-23T08:05:13;5.40;;;3.67;;
15071;SDS011;7635;56.696;13.002;2023-03-23T08:07:41;5.13;;;3.33;;
15071;SDS011;7635;56.696;13.002;2023-03-23T08:10:22;5.17;;;3.57;;
15071;SDS011;7635;56.696;13.002;2023-03-23T08:12:52;6.73;;;4.60;;
15071;SDS011;7635;56.696;13.002;2023-03-23T08:15:22;5.73;;;4.00;;
15071;SDS011;7635;56.696;13.002;2023-03-23T08:17:49;6.63;;;4.10;;
15071;SDS011;7635;56.696;13.002;2023-03-23T08:23:19;6.17;;;3.63;;
15071;SDS011;7635;56.696;13.002;2023-03-23T08:25:46;6.97;;;4.20;;
15071;SDS011;7635;56.696;13.002;2023-03-23T08:28:19;4.60;;;3.53;;
15071;SDS011;7635;56.696;13.002;2023-03-23T08:30:54;5.03;;;3.50;;
15071;SDS011;7635;56.696;13.002;2023-03-23T08:36:07;4.77;;;3.60;;
15071;SDS011;7635;56.696;13.002;2023-03-23T08:38:50;6.70;;;3.97;;
15071;SDS011;7635;56.696;13.002;2023-03-23T08:41:23;4.40;;;2.90;;
15071;SDS011;7635;56.696;13.002;2023-03-23T08:44:03;2.60;;;2.40;;
15071;SDS011;7635;56.696;13.002;2023-03-23T08:46:32;4.13;;;2.70;;
15071;SDS011;7635;56.696;13.002;2023-03-23T08:49:02;3.80;;;2.77;;
15071;SDS011;7635;56.696;13.002;2023-03-23T08:51:30;3.57;;;2.30;;
15071;SDS011;7635;56.696;13.002;2023-03-23T08:53:57;4.93;;;2.63;;
15071;SDS011;7635;56.696;13.002;2023-03-23T08:56:25;3.53;;;2.33;;
15071;SDS011;7635;56.696;13.002;2023-03-23T08:58:52;2.77;;;2.23;;
15071;SDS011;7635;56.696;13.002;2023-03-23T09:01:25;5.87;;;3.37;;
15071;SDS011;7635;56.696;13.002;2023-03-23T09:03:54;3.17;;;2.40;;
15071;SDS011;7635;56.696;13.002;2023-03-23T09:06:36;3.23;;;2.60;;
15071;SDS011;7635;56.696;13.002;2023-03-23T09:09:05;4.57;;;2.63;;
15071;SDS011;7635;56.696;13.002;2023-03-23T09:12:04;5.00;;;2.83;;
15071;SDS011;7635;56.696;13.002;2023-03-23T09:14:32;4.17;;;2.57;;
15071;SDS011;7635;56.696;13.002;2023-03-23T09:16:59;3.80;;;2.60;;
15071;SDS011;7635;56.696;13.002;2023-03-23T09:19:34;2.43;;;2.10;;
15071;SDS011;7635;56.696;13.002;2023-03-23T09:22:14;3.20;;;2.50;;
15071;SDS011;7635;56.696;13.002;2023-03-23T09:24:44;3.77;;;2.20;;
15071;SDS011;7635;56.696;13.002;2023-03-23T09:27:19;6.07;;;2.00;;
15071;SDS011;7635;56.696;13.002;2023-03-23T09:32:44;2.10;;;1.90;;
15071;SDS011;7635;56.696;13.002;2023-03-23T09:35:14;2.30;;;2.00;;
15071;SDS011;7635;56.696;13.002;2023-03-23T09:40:43;1.70;;;1.57;;
15071;SDS011;7635;56.696;13.002;2023-03-23T09:46:16;1.80;;;1.40;;
15071;SDS011;7635;56.696;13.002;2023-03-23T09:48:55;3.10;;;1.30;;
15071;SDS011;7635;56.696;13.002;2023-03-23T09:51:29;1.50;;;1.27;;
15071;SDS011;7635;56.696;13.002;2023-03-23T09:54:09;1.70;;;1.60;;
15071;SDS011;7635;56.696;13.002;2023-03-23T09:56:40;1.37;;;1.27;;
15071;SDS011;7635;56.696;13.002;2023-03-23T10:02:18;1.27;;;1.17;;
15071;SDS011;7635;56.696;13.002;2023-03-23T10:04:50;1.83;;;1.27;;
15071;SDS011;7635;56.696;13.002;2023-03-23T10:07:21;1.23;;;1.20;;
15071;SDS011;7635;56.696;13.002;2023-03-23T10:09:51;2.20;;;1.43;;
15071;SDS011;7635;56.696;13.002;2023-03-23T10:15:26;1.27;;;1.17;;
15071;SDS011;7635;56.696;13.002;2023-03-23T10:17:59;2.33;;;1.30;;
15071;SDS011;7635;56.696;13.002;2023-03-23T10:20:33;2.10;;;1.40;;
15071;SDS011;7635;56.696;13.002;2023-03-23T10:23:11;1.33;;;1.00;;
15071;SDS011;7635;56.696;13.002;2023-03-23T10:25:50;3.30;;;1.20;;
15071;SDS011;7635;56.696;13.002;2023-03-23T10:28:37;2.13;;;0.90;;
15071;SDS011;7635;56.696;13.002;2023-03-23T10:31:07;2.27;;;1.17;;
15071;SDS011;7635;56.696;13.002;2023-03-23T10:33:54;1.33;;;0.87;;
15071;SDS011;7635;56.696;13.002;2023-03-23T10:36:26;0.73;;;0.73;;
15071;SDS011;7635;56.696;13.002;2023-03-23T10:38:59;1.47;;;1.10;;
15071;SDS011;7635;56.696;13.002;2023-03-23T10:41:29;1.20;;;1.10;;
15071;SDS011;7635;56.696;13.002;2023-03-23T10:43:56;0.87;;;0.87;;
15071;SDS011;7635;56.696;13.002;2023-03-23T10:46:30;1.17;;;1.17;;
15071;SDS011;7635;56.696;13.002;2023-03-23T10:49:06;0.63;;;0.63;;
15071;SDS011;7635;56.696;13.002;2023-03-23T10:51:37;1.60;;;1.33;;
15071;SDS011;7635;56.696;13.002;2023-03-23T10:54:55;1.00;;;1.00;;
15071;SDS011;7635;56.696;13.002;2023-03-23T10:57:41;0.80;;;0.80;;
15071;SDS011;7635;56.696;13.002;2023-03-23T11:00:26;0.73;;;0.73;;
15071;SDS011;7635;56.696;13.002;2023-03-23T11:03:41;1.00;;;1.00;;
15071;SDS011;7635;56.696;13.002;2023-03-23T11:06:10;2.20;;;0.93;;
15071;SDS011;7635;56.696;13.002;2023-03-23T11:08:50;1.60;;;1.17;;
15071;SDS011;7635;56.696;13.002;2023-03-23T11:11:27;0.67;;;0.67;;
15071;SDS011;7635;56.696;13.002;2023-03-23T11:13:59;0.90;;;0.87;;
15071;SDS011;7635;56.696;13.002;2023-03-23T11:16:42;0.90;;;0.90;;
15071;SDS011;7635;56.696;13.002;2023-03-23T11:19:11;0.70;;;0.70;;
15071;SDS011;7635;56.696;13.002;2023-03-23T11:21:50;0.90;;;0.90;;
15071;SDS011;7635;56.696;13.002;2023-03-23T11:24:53;1.53;;;0.90;;
15071;SDS011;7635;56.696;13.002;2023-03-23T11:27:28;1.30;;;1.20;;
15071;SDS011;7635;56.696;13.002;2023-03-23T11:32:54;1.30;;;1.00;;
15071;SDS011;7635;56.696;13.002;2023-03-23T11:35:47;1.57;;;1.23;;
15071;SDS011;7635;56.696;13.002;2023-03-23T11:38:16;1.53;;;1.27;;
15071;SDS011;7635;56.696;13.002;2023-03-23T11:40:47;0.97;;;0.97;;
15071;SDS011;7635;56.696;13.002;2023-03-23T11:43:19;0.60;;;0.60;;
15071;SDS011;7635;56.696;13.002;2023-03-23T11:45:58;0.87;;;0.60;;
15071;SDS011;7635;56.696;13.002;2023-03-23T11:48:53;0.27;;;0.27;;
15071;SDS011;7635;56.696;13.002;2023-03-23T11:54:11;0.90;;;0.90;;
15071;SDS011;7635;56.696;13.002;2023-03-23T11:56:43;1.17;;;1.07;;
15071;SDS011;7635;56.696;13.002;2023-03-23T11:59:29;1.50;;;0.90;;
15071;SDS011;7635;56.696;13.002;2023-03-23T12:02:01;1.93;;;1.23;;
15071;SDS011;7635;56.696;13.002;2023-03-23T12:04:47;0.73;;;0.60;;
15071;SDS011;7635;56.696;13.002;2023-03-23T12:07:30;1.17;;;0.97;;
15071;SDS011;7635;56.696;13.002;2023-03-23T12:10:12;2.30;;;0.93;;
15071;SDS011;7635;56.696;13.002;2023-03-23T12:12:49;0.30;;;0.30;;
15071;SDS011;7635;56.696;13.002;2023-03-23T12:15:22;0.50;;;0.50;;
15071;SDS011;7635;56.696;13.002;2023-03-23T12:17:58;1.87;;;0.90;;
15071;SDS011;7635;56.696;13.002;2023-03-23T12:20:34;0.80;;;0.80;;
15071;SDS011;7635;56.696;13.002;2023-03-23T12:23:21;1.43;;;0.80;;
15071;SDS011;7635;56.696;13.002;2023-03-23T12:29:02;2.13;;;0.87;;
15071;SDS011;7635;56.696;13.002;2023-03-23T12:31:43;1.40;;;0.33;;
15071;SDS011;7635;56.696;13.002;2023-03-23T12:34:28;0.40;;;0.40;;
15071;SDS011;7635;56.696;13.002;2023-03-23T12:37:09;0.30;;;0.30;;
15071;SDS011;7635;56.696;13.002;2023-03-23T12:39:50;0.70;;;0.70;;
15071;SDS011;7635;56.696;13.002;2023-03-23T12:42:48;4.53;;;1.40;;
15071;SDS011;7635;56.696;13.002;2023-03-23T12:45:42;8.00;;;1.80;;
15071;SDS011;7635;56.696;13.002;2023-03-23T12:48:33;4.57;;;1.43;;
15071;SDS011;7635;56.696;13.002;2023-03-23T12:51:08;0.50;;;0.50;;
15071;SDS011;7635;56.696;13.002;2023-03-23T12:53:56;0.90;;;0.90;;
15071;SDS011;7635;56.696;13.002;2023-03-23T12:57:05;0.60;;;0.60;;
15071;SDS011;7635;56.696;13.002;2023-03-23T12:59:36;0.50;;;0.50;;
15071;SDS011;7635;56.696;13.002;2023-03-23T13:02:14;0.70;;;0.70;;
15071;SDS011;7635;56.696;13.002;2023-03-23T13:04:49;0.93;;;0.83;;
15071;SDS011;7635;56.696;13.002;2023-03-23T13:07:21;0.53;;;0.53;;
15071;SDS011;7635;56.696;13.002;2023-03-23T13:09:54;4.57;;;1.17;;
15071;SDS011;7635;56.696;13.002;2023-03-23T13:12:29;0.57;;;0.57;;
15071;SDS011;7635;56.696;13.002;2023-03-23T13:15:02;1.07;;;0.93;;
15071;SDS011;7635;56.696;13.002;2023-03-23T13:18:02;9.10;;;0.73;;
15071;SDS011;7635;56.696;13.002;2023-03-23T13:20:43;0.53;;;0.53;;
15071;SDS011;7635;56.696;13.002;2023-03-23T13:23:31;0.60;;;0.60;;
15071;SDS011;7635;56.696;13.002;2023-03-23T13:26:09;5.20;;;1.33;;
15071;SDS011;7635;56.696;13.002;2023-03-23T13:28:54;0.83;;;0.83;;
15071;SDS011;7635;56.696;13.002;2023-03-23T13:34:31;1.90;;;1.20;;
15071;SDS011;7635;56.696;13.002;2023-03-23T13:37:18;0.50;;;0.50;;
15071;SDS011;7635;56.696;13.002;2023-03-23T13:40:15;6.67;;;1.70;;
15071;SDS011;7635;56.696;13.002;2023-03-23T13:43:07;1.63;;;1.10;;
15071;SDS011;7635;56.696;13.002;2023-03-23T13:45:36;2.67;;;0.80;;
15071;SDS011;7635;56.696;13.002;2023-03-23T13:51:24;3.27;;;1.63;;
15071;SDS011;7635;56.696;13.002;2023-03-23T13:54:14;0.40;;;0.40;;
15071;SDS011;7635;56.696;13.002;2023-03-23T13:56:52;2.40;;;1.50;;
15071;SDS011;7635;56.696;13.002;2023-03-23T13:59:31;4.00;;;1.90;;
15071;SDS011;7635;56.696;13.002;2023-03-23T14:08:12;3.10;;;1.40;;
15071;SDS011;7635;56.696;13.002;2023-03-23T14:10:50;2.13;;;0.93;;
15071;SDS011;7635;56.696;13.002;2023-03-23T14:13:31;2.93;;;1.27;;
15071;SDS011;7635;56.696;13.002;2023-03-23T14:16:05;3.93;;;1.47;;
15071;SDS011;7635;56.696;13.002;2023-03-23T14:18:41;0.50;;;0.50;;
15071;SDS011;7635;56.696;13.002;2023-03-23T14:27:15;1.57;;;1.33;;
15071;SDS011;7635;56.696;13.002;2023-03-23T14:29:43;2.23;;;1.73;;
15071;SDS011;7635;56.696;13.002;2023-03-23T14:32:23;1.47;;;1.17;;
15071;SDS011;7635;56.696;13.002;2023-03-23T14:34:57;1.10;;;1.00;;
15071;SDS011;7635;56.696;13.002;2023-03-23T14:37:36;14.77;;;1.90;;
15071;SDS011;7635;56.696;13.002;2023-03-23T14:40:03;3.27;;;1.23;;
15071;SDS011;7635;56.696;13.002;2023-03-23T14:42:34;2.47;;;1.40;;
15071;SDS011;7635;56.696;13.002;2023-03-23T14:45:20;1.73;;;0.90;;
15071;SDS011;7635;56.696;13.002;2023-03-23T14:47:48;2.30;;;1.10;;
15071;SDS011;7635;56.696;13.002;2023-03-23T14:50:38;3.87;;;1.50;;
15071;SDS011;7635;56.696;13.002;2023-03-23T14:53:13;2.10;;;1.00;;
15071;SDS011;7635;56.696;13.002;2023-03-23T14:58:37;0.97;;;0.90;;
15071;SDS011;7635;56.696;13.002;2023-03-23T15:01:05;2.13;;;0.57;;
15071;SDS011;7635;56.696;13.002;2023-03-23T15:03:40;0.53;;;0.53;;
15071;SDS011;7635;56.696;13.002;2023-03-23T15:06:12;5.37;;;2.03;;
15071;SDS011;7635;56.696;13.002;2023-03-23T15:08:42;3.33;;;1.70;;
15071;SDS011;7635;56.696;13.002;2023-03-23T15:11:13;3.30;;;0.97;;
15071;SDS011;7635;56.696;13.002;2023-03-23T15:13:52;2.67;;;1.60;;
15071;SDS011;7635;56.696;13.002;2023-03-23T15:16:23;4.13;;;1.63;;
15071;SDS011;7635;56.696;13.002;2023-03-23T15:18:53;0.90;;;0.90;;
15071;SDS011;7635;56.696;13.002;2023-03-23T15:24:31;5.27;;;1.57;;
15071;SDS011;7635;56.696;13.002;2023-03-23T15:27:03;2.20;;;1.60;;
15071;SDS011;7635;56.696;13.002;2023-03-23T15:29:47;2.67;;;1.27;;
15071;SDS011;7635;56.696;13.002;2023-03-23T15:32:26;2.60;;;0.93;;
15071;SDS011;7635;56.696;13.002;2023-03-23T15:35:09;4.70;;;1.63;;
15071;SDS011;7635;56.696;13.002;2023-03-23T15:37:41;2.63;;;1.97;;
15071;SDS011;7635;56.696;13.002;2023-03-23T15:43:14;1.43;;;1.30;;
15071;SDS011;7635;56.696;13.002;2023-03-23T15:45:55;5.23;;;1.40;;
15071;SDS011;7635;56.696;13.002;2023-03-23T15:48:46;1.80;;;1.03;;
15071;SDS011;7635;56.696;13.002;2023-03-23T15:51:14;10.57;;;1.87;;
15071;SDS011;7635;56.696;13.002;2023-03-23T15:53:42;2.13;;;1.30;;
15071;SDS011;7635;56.696;13.002;2023-03-23T15:56:10;4.60;;;1.57;;
15071;SDS011;7635;56.696;13.002;2023-03-23T15:58:38;2.13;;;1.03;;
15071;SDS011;7635;56.696;13.002;2023-03-23T16:01:17;1.77;;;1.40;;
15071;SDS011;7635;56.696;13.002;2023-03-23T16:03:47;5.53;;;1.70;;
15071;SDS011;7635;56.696;13.002;2023-03-23T16:06:19;3.37;;;1.10;;
15071;SDS011;7635;56.696;13.002;2023-03-23T16:08:56;4.47;;;1.70;;
15071;SDS011;7635;56.696;13.002;2023-03-23T16:14:12;6.60;;;1.50;;
15071;SDS011;7635;56.696;13.002;2023-03-23T16:17:11;5.40;;;1.80;;
15071;SDS011;7635;56.696;13.002;2023-03-23T16:19:56;1.70;;;1.30;;
15071;SDS011;7635;56.696;13.002;2023-03-23T16:22:24;4.13;;;1.97;;
15071;SDS011;7635;56.696;13.002;2023-03-23T16:25:08;9.73;;;1.93;;
15071;SDS011;7635;56.696;13.002;2023-03-23T16:27:35;0.57;;;0.57;;
15071;SDS011;7635;56.696;13.002;2023-03-23T16:30:12;5.27;;;1.70;;
15071;SDS011;7635;56.696;13.002;2023-03-23T16:32:54;3.10;;;1.60;;
15071;SDS011;7635;56.696;13.002;2023-03-23T16:35:27;3.07;;;1.37;;
15071;SDS011;7635;56.696;13.002;2023-03-23T16:37:55;10.03;;;2.17;;
15071;SDS011;7635;56.696;13.002;2023-03-23T16:40:23;2.17;;;1.30;;
15071;SDS011;7635;56.696;13.002;2023-03-23T16:42:51;8.73;;;1.80;;
15071;SDS011;7635;56.696;13.002;2023-03-23T16:45:53;1.80;;;0.60;;
15071;SDS011;7635;56.696;13.002;2023-03-23T16:48:28;4.70;;;1.87;;
15071;SDS011;7635;56.696;13.002;2023-03-23T16:50:55;1.53;;;1.43;;
15071;SDS011;7635;56.696;13.002;2023-03-23T16:53:34;4.47;;;2.30;;
15071;SDS011;7635;56.696;13.002;2023-03-23T16:56:28;5.83;;;2.20;;
15071;SDS011;7635;56.696;13.002;2023-03-23T16:59:14;4.80;;;1.30;;
15071;SDS011;7635;56.696;13.002;2023-03-23T17:10:25;11.90;;;1.63;;
15071;SDS011;7635;56.696;13.002;2023-03-23T17:12:55;5.90;;;2.10;;
15071;SDS011;7635;56.696;13.002;2023-03-23T17:15:41;5.87;;;1.70;;
15071;SDS011;7635;56.696;13.002;2023-03-23T17:18:09;5.30;;;1.70;;
15071;SDS011;7635;56.696;13.002;2023-03-23T17:20:37;5.03;;;1.53;;
15071;SDS011;7635;56.696;13.002;2023-03-23T17:23:10;6.07;;;2.47;;
15071;SDS011;7635;56.696;13.002;2023-03-23T17:25:42;2.63;;;1.27;;
15071;SDS011;7635;56.696;13.002;2023-03-23T17:28:14;6.37;;;2.13;;
15071;SDS011;7635;56.696;13.002;2023-03-23T17:30:41;3.80;;;0.97;;